Time;durP1;ratioP1;P1;durP2;ratioP2;P2;SDS_P1;SDS_P2;PMS_P1;PMS_P2;Temp;Humidity;BMP_temperature;BMP_pressure;BME280_temperature;BME280_humidity;BME280_pressure;Samples;Min_cycle;Max_cycle;Signal;HPM_P1;HPM_P2
2024/01/21 00:00:45;;;;;;;24.95;8.43;;;-3.90;98.00;;;;;;4993279;28;20193;-90
2024/01/21 00:03:13;;;;;;;17.75;6.68;;;-3.90;98.00;;;;;;4993178;28;20209;-89
2024/01/21 00:05:41;;;;;;;20.95;6.40;;;-4.00;98.00;;;;;;4993585;28;20194;-89
2024/01/21 00:08:08;;;;;;;12.70;5.70;;;-3.90;98.00;;;;;;4993086;28;20268;-89
2024/01/21 00:10:35;;;;;;;14.85;6.63;;;-3.80;98.00;;;;;;4993488;28;20565;-89
2024/01/21 00:13:02;;;;;;;22.27;7.00;;;-3.60;98.00;;;;;;4992840;28;20229;-89
2024/01/21 00:15:31;;;;;;;17.13;6.35;;;-3.70;98.00;;;;;;4993406;28;20205;-89
2024/01/21 00:17:58;;;;;;;18.02;6.88;;;-3.70;98.00;;;;;;4992766;28;20212;-90
2024/01/21 00:20:30;;;;;;;19.38;6.95;;;-3.90;98.00;;;;;;4993545;28;20190;-90
2024/01/21 00:22:58;;;;;;;20.08;7.20;;;-3.90;98.00;;;;;;4992838;28;20702;-90
2024/01/21 00:25:25;;;;;;;19.73;7.60;;;-3.90;98.00;;;;;;4993080;28;20201;-90
2024/01/21 00:27:52;;;;;;;15.40;6.80;;;-3.90;98.00;;;;;;4992352;28;20672;-90
2024/01/21 00:30:19;;;;;;;22.67;7.57;;;-3.90;98.00;;;;;;4992654;28;20194;-89
2024/01/21 00:32:46;;;;;;;15.68;6.53;;;-3.90;98.00;;;;;;4992651;28;20307;-89
2024/01/21 00:35:13;;;;;;;15.15;6.15;;;-3.80;98.00;;;;;;4993213;28;20680;-89
2024/01/21 00:37:42;;;;;;;17.98;6.80;;;-3.70;98.00;;;;;;4992570;28;20201;-90
2024/01/21 00:40:09;;;;;;;17.95;7.15;;;-3.60;98.00;;;;;;4993168;28;20189;-88
2024/01/21 00:42:37;;;;;;;14.07;6.55;;;-3.70;98.00;;;;;;4992842;28;20228;-90
2024/01/21 00:45:05;;;;;;;22.17;7.03;;;-3.80;98.00;;;;;;4992817;28;20209;-89
2024/01/21 00:47:32;;;;;;;16.40;6.30;;;-3.90;98.00;;;;;;4992523;28;20216;-90
2024/01/21 00:49:59;;;;;;;15.63;6.20;;;-4.00;98.00;;;;;;4992899;28;20697;-90
2024/01/21 00:52:26;;;;;;;14.23;6.38;;;-4.00;98.00;;;;;;4992474;28;20225;-90
2024/01/21 00:54:55;;;;;;;17.92;6.75;;;-4.00;98.00;;;;;;4992689;28;20631;-88
2024/01/21 00:57:22;;;;;;;13.15;6.15;;;-4.00;98.00;;;;;;4992435;28;20209;-90
2024/01/21 00:59:50;;;;;;;17.88;5.97;;;-4.10;98.00;;;;;;4992783;28;20661;-89
2024/01/21 01:02:17;;;;;;;20.50;6.35;;;-4.10;98.00;;;;;;4992549;28;20307;-89
2024/01/21 01:04:44;;;;;;;17.88;6.82;;;-4.00;98.00;;;;;;4992220;28;20272;-89
2024/01/21 01:07:11;;;;;;;12.85;5.10;;;-4.10;98.00;;;;;;4991758;28;20213;-89
2024/01/21 01:09:38;;;;;;;22.25;6.90;;;-4.10;98.00;;;;;;4992912;28;20243;-89
2024/01/21 01:12:07;;;;;;;17.58;6.43;;;-4.10;98.00;;;;;;4992287;28;20228;-90
2024/01/21 01:14:34;;;;;;;12.07;5.60;;;-4.10;98.00;;;;;;4991969;28;20236;-89
2024/01/21 01:17:01;;;;;;;13.50;5.63;;;-4.30;98.00;;;;;;4991924;28;20228;-89
2024/01/21 01:19:28;;;;;;;15.98;6.35;;;-4.20;98.00;;;;;;4992541;28;20221;-89
2024/01/21 01:21:55;;;;;;;12.18;4.93;;;-4.20;98.00;;;;;;4992529;28;20256;-89
2024/01/21 01:24:23;;;;;;;11.25;4.88;;;-4.10;98.00;;;;;;4992401;28;20680;-89
2024/01/21 01:26:50;;;;;;;15.88;5.53;;;-4.30;98.00;;;;;;4991951;28;20264;-89
2024/01/21 01:29:19;;;;;;;13.15;5.45;;;-4.30;98.00;;;;;;4992859;28;20206;-90
2024/01/21 01:31:46;;;;;;;14.27;5.95;;;-4.40;98.00;;;;;;4992717;28;20752;-90
2024/01/21 01:34:13;;;;;;;18.48;6.03;;;-4.20;98.00;;;;;;4992409;28;20233;-90
2024/01/21 01:36:40;;;;;;;10.95;4.95;;;-4.10;98.00;;;;;;4992421;28;20252;-90
2024/01/21 01:39:08;;;;;;;10.82;6.13;;;-4.30;98.00;;;;;;4992727;28;20185;-90
2024/01/21 01:41:35;;;;;;;16.27;5.60;;;-4.30;98.00;;;;;;4992283;28;20261;-89
2024/01/21 01:44:02;;;;;;;15.05;5.15;;;-4.30;98.00;;;;;;4995624;28;20201;-89
2024/01/21 01:46:31;;;;;;;11.70;4.93;;;-4.30;98.00;;;;;;4995268;28;20208;-89
2024/01/21 01:48:59;;;;;;;12.85;5.20;;;-4.30;98.00;;;;;;4996104;28;20205;-90
2024/01/21 01:51:27;;;;;;;7.65;4.40;;;-4.40;98.00;;;;;;4995919;28;20229;-90
2024/01/21 01:53:54;;;;;;;18.67;5.70;;;-4.60;98.00;;;;;;4995279;28;20233;-89
2024/01/21 01:56:22;;;;;;;15.32;5.72;;;-4.50;98.00;;;;;;4995276;28;20641;-90
2024/01/21 01:58:51;;;;;;;13.98;5.32;;;-4.50;98.00;;;;;;4995812;28;20205;-90
2024/01/21 02:01:19;;;;;;;8.82;4.25;;;-4.50;98.00;;;;;;4995364;28;20221;-90
2024/01/21 02:03:47;;;;;;;10.43;5.15;;;-4.60;98.00;;;;;;4995388;28;20193;-89
2024/01/21 02:06:16;;;;;;;16.02;5.47;;;-4.50;98.00;;;;;;4995028;28;20656;-89
2024/01/21 02:08:43;;;;;;;12.82;5.35;;;-4.60;98.00;;;;;;4995266;28;20227;-88
2024/01/21 02:11:10;;;;;;;13.02;5.28;;;-4.60;98.00;;;;;;4995529;28;20323;-90
2024/01/21 02:13:37;;;;;;;13.57;5.63;;;-4.60;98.00;;;;;;4994893;28;20277;-89
2024/01/21 02:16:04;;;;;;;13.00;5.50;;;-4.50;98.00;;;;;;4994783;28;20213;-89
2024/01/21 02:18:33;;;;;;;11.73;5.20;;;-4.60;98.00;;;;;;4995365;28;20735;-89
2024/01/21 02:21:01;;;;;;;9.88;4.90;;;-4.70;98.00;;;;;;4995561;28;20748;-90
2024/01/21 02:23:31;;;;;;;10.32;4.85;;;-4.60;98.00;;;;;;4994824;28;20197;-90
2024/01/21 02:25:58;;;;;;;16.48;5.22;;;-4.70;98.00;;;;;;4994688;28;20205;-90
2024/01/21 02:28:25;;;;;;;9.45;5.38;;;-4.70;98.00;;;;;;4994947;28;20209;-90
2024/01/21 02:30:52;;;;;;;12.73;5.20;;;-4.80;98.00;;;;;;4995025;28;20709;-89
2024/01/21 02:33:19;;;;;;;10.65;5.07;;;-4.90;98.00;;;;;;4994635;28;20221;-89
2024/01/21 02:35:46;;;;;;;16.75;6.15;;;-4.90;98.00;;;;;;4991947;28;20661;-89
2024/01/21 02:38:14;;;;;;;12.95;5.50;;;-4.80;98.00;;;;;;4994747;28;20707;-90
2024/01/21 02:40:42;;;;;;;12.93;5.45;;;-4.80;98.00;;;;;;4994635;28;20205;-90
2024/01/21 02:43:09;;;;;;;11.15;5.10;;;-4.80;98.00;;;;;;4994680;28;20206;-89
2024/01/21 02:45:36;;;;;;;16.13;4.82;;;-4.80;98.00;;;;;;4995014;28;20220;-89
2024/01/21 02:48:04;;;;;;;11.38;5.05;;;-4.90;98.00;;;;;;4993971;28;20235;-88
2024/01/21 02:50:34;;;;;;;11.98;5.15;;;-4.90;98.00;;;;;;4994968;28;20197;-89
2024/01/21 02:53:01;;;;;;;12.30;5.30;;;-4.80;98.00;;;;;;4994133;28;20201;-89
2024/01/21 02:55:28;;;;;;;16.55;6.40;;;-4.90;98.00;;;;;;4994091;28;20218;-89
2024/01/21 02:57:56;;;;;;;12.63;5.63;;;-5.00;98.00;;;;;;4994041;28;20572;-89
2024/01/21 03:00:26;;;;;;;13.10;5.28;;;-4.90;98.00;;;;;;4994382;28;20213;-89
2024/01/21 03:02:53;;;;;;;10.68;4.75;;;-4.90;98.00;;;;;;4993988;28;20245;-90
2024/01/21 03:05:20;;;;;;;14.98;5.78;;;-4.90;98.00;;;;;;4994572;28;20205;-88
2024/01/21 03:07:47;;;;;;;11.07;4.93;;;-4.70;98.00;;;;;;4993699;28;20198;-90
2024/01/21 03:10:14;;;;;;;8.50;4.72;;;-4.80;98.00;;;;;;4994084;28;20669;-88
2024/01/21 03:12:41;;;;;;;11.27;4.50;;;-4.80;98.00;;;;;;4994063;28;20233;-89
2024/01/21 03:15:10;;;;;;;9.30;4.85;;;-4.70;98.00;;;;;;4994229;28;20676;-89
2024/01/21 03:17:36;;;;;;;9.88;4.32;;;-4.60;98.00;;;;;;4993255;28;20717;-90
2024/01/21 03:20:05;;;;;;;13.53;5.67;;;-4.60;98.00;;;;;;4994051;28;20193;-89
2024/01/21 03:22:32;;;;;;;14.02;4.93;;;-4.70;98.00;;;;;;4994133;28;20468;-90
2024/01/21 03:24:59;;;;;;;11.90;4.80;;;-4.70;98.00;;;;;;4993685;28;20185;-90
2024/01/21 03:27:26;;;;;;;15.45;5.00;;;-4.70;98.00;;;;;;4993421;28;20205;-89
2024/01/21 03:29:55;;;;;;;7.15;4.00;;;-4.80;98.00;;;;;;4994000;28;20213;-89
2024/01/21 03:32:23;;;;;;;11.35;4.75;;;-4.70;98.00;;;;;;4993840;28;20316;-89
2024/01/21 03:34:51;;;;;;;10.60;4.38;;;-4.60;98.00;;;;;;4993675;28;20225;-89
2024/01/21 03:37:19;;;;;;;14.70;5.72;;;-4.90;98.00;;;;;;4993062;28;20201;-90
2024/01/21 03:39:46;;;;;;;13.35;5.25;;;-4.90;98.00;;;;;;4993565;28;20205;-89
2024/01/21 03:42:13;;;;;;;14.82;5.15;;;-5.00;98.00;;;;;;4993216;28;20229;-89
2024/01/21 03:44:40;;;;;;;13.23;5.13;;;-5.10;98.00;;;;;;4993611;28;20645;-90
2024/01/21 03:47:07;;;;;;;12.93;5.00;;;-5.30;98.00;;;;;;4992794;28;20201;-90
2024/01/21 03:49:36;;;;;;;9.50;4.80;;;-5.30;98.00;;;;;;4993768;28;20575;-90
2024/01/21 03:52:03;;;;;;;12.50;4.95;;;-5.20;98.00;;;;;;4993318;28;20229;-89
2024/01/21 03:54:30;;;;;;;11.68;4.70;;;-5.20;98.00;;;;;;4993258;28;20226;-90
2024/01/21 03:56:59;;;;;;;10.82;4.75;;;-5.10;98.00;;;;;;4992742;28;20201;-90
2024/01/21 03:59:26;;;;;;;19.48;5.30;;;-4.90;98.00;;;;;;4993458;28;20220;-90
2024/01/21 04:01:53;;;;;;;8.10;4.40;;;-4.90;98.00;;;;;;4993209;28;20705;-90
2024/01/21 04:04:20;;;;;;;11.18;4.60;;;-4.80;98.00;;;;;;4993107;28;20190;-90
2024/01/21 04:06:49;;;;;;;13.43;4.47;;;-4.70;98.00;;;;;;4992096;28;20556;-88
2024/01/21 04:09:22;;;;;;;11.35;5.32;;;-4.50;98.00;;;;;;4993507;28;20611;-90
2024/01/21 04:11:49;;;;;;;13.63;4.63;;;-4.70;98.00;;;;;;4993191;28;20225;-89
2024/01/21 04:14:16;;;;;;;13.57;5.47;;;-4.80;98.00;;;;;;4993032;28;20228;-89
2024/01/21 04:16:44;;;;;;;8.15;4.13;;;-4.90;98.00;;;;;;4992785;28;20284;-88
2024/01/21 04:19:12;;;;;;;11.00;4.38;;;-4.90;98.00;;;;;;4993320;28;20212;-89
2024/01/21 04:21:39;;;;;;;9.75;4.40;;;-5.00;98.00;;;;;;4993288;28;20232;-89
2024/01/21 04:24:08;;;;;;;8.77;4.43;;;-5.00;98.00;;;;;;4992735;28;20209;-89
2024/01/21 04:26:35;;;;;;;11.32;4.65;;;-5.10;98.00;;;;;;4992900;28;20293;-90
2024/01/21 04:29:02;;;;;;;11.65;4.32;;;-5.10;98.00;;;;;;4992681;28;20208;-89
2024/01/21 04:31:29;;;;;;;13.35;4.80;;;-5.00;98.00;;;;;;4992730;28;20867;-89
2024/01/21 04:33:56;;;;;;;8.90;3.72;;;-4.90;98.00;;;;;;4992712;28;20217;-89
2024/01/21 04:36:23;;;;;;;9.32;4.00;;;-4.80;98.00;;;;;;4992442;28;20724;-89
2024/01/21 04:38:50;;;;;;;10.95;5.00;;;-4.70;98.00;;;;;;4992803;28;20241;-89
2024/01/21 04:41:19;;;;;;;15.55;5.38;;;-4.70;98.00;;;;;;4992502;28;20237;-88
2024/01/21 04:43:46;;;;;;;8.95;4.38;;;-4.80;98.00;;;;;;4991656;28;20877;-89
2024/01/21 04:46:13;;;;;;;10.75;4.60;;;-4.80;98.00;;;;;;4992475;28;20225;-89
2024/01/21 04:48:40;;;;;;;12.13;4.50;;;-4.80;98.00;;;;;;4992159;28;20244;-89
2024/01/21 04:51:07;;;;;;;11.75;5.10;;;-4.70;98.00;;;;;;4993026;28;20854;-89
2024/01/21 04:53:37;;;;;;;16.27;6.00;;;-4.60;98.00;;;;;;4992338;28;20209;-89
2024/01/21 04:56:05;;;;;;;16.85;6.20;;;-4.60;98.00;;;;;;4992416;28;20252;-88
2024/01/21 04:58:33;;;;;;;8.65;4.45;;;-4.60;98.00;;;;;;4992524;28;20205;-89
2024/01/21 05:01:00;;;;;;;11.55;5.00;;;-4.50;98.00;;;;;;4992394;28;20229;-88
2024/01/21 05:03:29;;;;;;;9.02;4.40;;;-4.60;98.00;;;;;;4992488;28;20657;-89
2024/01/21 05:05:57;;;;;;;12.82;4.63;;;-4.70;98.00;;;;;;4992086;28;20209;-89
2024/01/21 05:08:24;;;;;;;11.68;4.25;;;-4.50;98.00;;;;;;4992198;28;20193;-90
2024/01/21 05:10:51;;;;;;;11.27;3.85;;;-4.50;98.00;;;;;;4992546;28;20213;-90
2024/01/21 05:13:18;;;;;;;10.85;4.45;;;-4.50;98.00;;;;;;4992084;28;20646;-89
2024/01/21 05:15:47;;;;;;;10.35;4.25;;;-4.50;98.00;;;;;;4991807;28;20225;-89
2024/01/21 05:18:14;;;;;;;11.38;4.22;;;-4.50;98.00;;;;;;4995061;28;20216;-89
2024/01/21 05:20:41;;;;;;;12.55;5.60;;;-4.50;98.00;;;;;;4996049;28;20221;-90
2024/01/21 05:23:08;;;;;;;10.40;4.63;;;-4.60;98.00;;;;;;4996078;28;20210;-88
2024/01/21 05:25:35;;;;;;;8.60;4.20;;;-4.50;98.00;;;;;;4996445;28;20189;-89
2024/01/21 05:28:03;;;;;;;11.35;4.68;;;-4.50;98.00;;;;;;4994680;28;20206;-89
2024/01/21 05:30:30;;;;;;;10.05;4.45;;;-4.60;98.00;;;;;;4996120;28;20208;-89
2024/01/21 05:32:58;;;;;;;9.73;4.63;;;-4.60;98.00;;;;;;4995912;28;20292;-89
2024/01/21 05:35:25;;;;;;;9.68;4.00;;;-4.70;98.00;;;;;;4996027;28;20293;-89
2024/01/21 05:37:52;;;;;;;10.48;4.40;;;-4.80;98.00;;;;;;4995723;28;20186;-89
2024/01/21 05:40:29;;;;;;;12.82;5.00;;;-4.70;98.00;;;;;;4997139;28;20207;-89
2024/01/21 05:43:00;;;;;;;12.20;5.70;;;-4.70;98.00;;;;;;4997680;28;20557;-90
2024/01/21 05:45:28;;;;;;;8.88;4.60;;;-4.70;98.00;;;;;;4998058;28;20236;-89
2024/01/21 05:47:55;;;;;;;9.23;4.90;;;-4.80;98.00;;;;;;4997777;28;20201;-89
2024/01/21 05:50:23;;;;;;;11.45;5.68;;;-4.70;98.00;;;;;;4997966;28;20201;-90
2024/01/21 05:52:52;;;;;;;13.32;5.00;;;-4.60;98.00;;;;;;4998180;28;20249;-89
2024/01/21 05:55:19;;;;;;;15.63;5.38;;;-4.70;98.00;;;;;;4998987;28;20225;-89
2024/01/21 05:57:46;;;;;;;7.80;3.67;;;-4.80;98.00;;;;;;4998837;28;20205;-89
2024/01/21 06:00:14;;;;;;;10.55;4.70;;;-4.80;98.00;;;;;;4995938;28;20236;-89
2024/01/21 06:02:43;;;;;;;9.90;4.80;;;-4.90;98.00;;;;;;4995655;28;20225;-89
2024/01/21 06:05:10;;;;;;;11.27;4.88;;;-5.00;98.00;;;;;;4995921;28;20201;-89
2024/01/21 06:07:38;;;;;;;12.63;4.90;;;-4.90;98.00;;;;;;4995330;28;20211;-89
2024/01/21 06:10:06;;;;;;;14.70;5.35;;;-4.80;98.00;;;;;;4996271;28;20213;-89
2024/01/21 06:12:33;;;;;;;9.68;4.80;;;-4.80;98.00;;;;;;4994938;28;20703;-90
2024/01/21 06:15:01;;;;;;;8.82;4.45;;;-4.80;98.00;;;;;;4995073;28;20232;-89
2024/01/21 06:17:28;;;;;;;10.43;5.03;;;-4.70;98.00;;;;;;4995042;28;20624;-89
2024/01/21 06:19:56;;;;;;;11.02;4.80;;;-4.80;98.00;;;;;;4995247;28;20198;-89
2024/01/21 06:22:23;;;;;;;9.90;4.70;;;-4.80;98.00;;;;;;4994676;28;20221;-89
2024/01/21 06:24:52;;;;;;;18.70;5.20;;;-4.80;98.00;;;;;;4995231;28;20185;-88
2024/01/21 06:27:19;;;;;;;10.85;4.43;;;-4.90;98.00;;;;;;4994846;28;20193;-89
2024/01/21 06:29:46;;;;;;;11.52;4.78;;;-4.90;98.00;;;;;;4994303;28;20287;-89
2024/01/21 06:32:13;;;;;;;12.00;5.00;;;-5.00;98.00;;;;;;4994998;28;20426;-89
2024/01/21 06:34:40;;;;;;;9.15;4.57;;;-5.00;98.00;;;;;;4995087;28;20228;-89
2024/01/21 06:37:07;;;;;;;11.75;4.25;;;-5.00;98.00;;;;;;4994228;28;20216;-89
2024/01/21 06:39:34;;;;;;;11.43;5.13;;;-5.10;98.00;;;;;;4994815;28;20209;-88
2024/01/21 06:42:03;;;;;;;10.85;4.65;;;-4.90;98.00;;;;;;4994828;28;20228;-89
2024/01/21 06:44:30;;;;;;;18.23;5.15;;;-4.80;98.00;;;;;;4994649;28;20185;-89
2024/01/21 06:46:57;;;;;;;11.48;5.05;;;-4.90;98.00;;;;;;4994517;28;20213;-89
2024/01/21 06:49:24;;;;;;;11.68;4.93;;;-5.00;98.00;;;;;;4995139;28;20213;-90
2024/01/21 06:51:54;;;;;;;11.07;4.93;;;-5.00;98.00;;;;;;4994748;28;20218;-89
2024/01/21 06:54:21;;;;;;;15.85;5.65;;;-4.80;98.00;;;;;;4994677;28;20643;-90
2024/01/21 06:56:48;;;;;;;11.10;5.55;;;-4.80;98.00;;;;;;4994389;28;20223;-89
2024/01/21 06:59:17;;;;;;;10.18;5.07;;;-4.80;98.00;;;;;;4994858;28;20217;-88
2024/01/21 07:01:44;;;;;;;15.05;5.50;;;-4.80;98.00;;;;;;4994232;28;20229;-87
2024/01/21 07:04:12;;;;;;;14.30;5.95;;;-4.70;98.00;;;;;;4994138;28;20190;-87
2024/01/21 07:06:41;;;;;;;13.20;5.47;;;-4.70;98.00;;;;;;4992750;28;20256;-87
2024/01/21 07:09:09;;;;;;;11.00;5.55;;;-4.60;98.00;;;;;;4994131;28;20212;-87
2024/01/21 07:11:37;;;;;;;11.57;5.00;;;-4.40;98.00;;;;;;4994170;28;20598;-87
2024/01/21 07:14:04;;;;;;;10.57;5.03;;;-4.40;98.00;;;;;;4993886;28;20213;-87
2024/01/21 07:16:32;;;;;;;12.02;5.93;;;-4.40;98.00;;;;;;4993851;28;20248;-87
2024/01/21 07:19:00;;;;;;;13.35;6.15;;;-4.30;98.00;;;;;;4994025;28;20189;-88
2024/01/21 07:21:27;;;;;;;18.05;5.80;;;-4.30;98.00;;;;;;4994029;28;20712;-88
2024/01/21 07:23:54;;;;;;;15.18;6.10;;;-4.30;98.00;;;;;;4993566;28;20202;-88
2024/01/21 07:26:23;;;;;;;14.32;5.50;;;-4.30;98.00;;;;;;4993214;28;20208;-87
2024/01/21 07:28:51;;;;;;;10.65;5.45;;;-4.40;98.00;;;;;;4994087;28;20193;-88
2024/01/21 07:31:18;;;;;;;12.80;5.70;;;-4.40;98.00;;;;;;4993690;28;20230;-88
2024/01/21 07:33:47;;;;;;;11.68;4.97;;;-4.40;98.00;;;;;;4993789;28;20572;-88
2024/01/21 07:36:14;;;;;;;15.73;6.35;;;-4.30;98.00;;;;;;4993283;28;20244;-88
2024/01/21 07:38:41;;;;;;;13.35;4.90;;;-4.30;98.00;;;;;;4993893;28;20820;-88
2024/01/21 07:41:08;;;;;;;12.65;5.70;;;-4.20;98.00;;;;;;4993451;28;20215;-87
2024/01/21 07:43:35;;;;;;;13.25;5.20;;;-4.20;98.00;;;;;;4993591;28;20213;-87
2024/01/21 07:46:02;;;;;;;14.23;6.45;;;-4.20;98.00;;;;;;4992952;28;20664;-86
2024/01/21 07:48:29;;;;;;;12.88;5.15;;;-4.10;98.00;;;;;;4993525;28;20193;-88
2024/01/21 07:50:57;;;;;;;12.55;5.72;;;-4.20;98.00;;;;;;4993702;28;20233;-87
2024/01/21 07:53:25;;;;;;;15.85;6.03;;;-4.10;98.00;;;;;;4993040;28;20212;-88
2024/01/21 07:55:53;;;;;;;17.48;6.45;;;-4.20;98.00;;;;;;4992966;28;20693;-88
2024/01/21 07:58:20;;;;;;;13.18;5.95;;;-4.10;98.00;;;;;;4993277;28;20214;-88
2024/01/21 08:00:48;;;;;;;13.40;5.82;;;-4.20;98.00;;;;;;4993310;28;20196;-87
2024/01/21 08:03:15;;;;;;;15.95;6.20;;;-4.30;98.00;;;;;;4993451;28;20630;-88
2024/01/21 08:05:42;;;;;;;14.40;6.53;;;-4.30;98.00;;;;;;4993259;28;20190;-88
2024/01/21 08:08:10;;;;;;;15.43;6.43;;;-4.30;98.00;;;;;;4992835;28;20259;-88
2024/01/21 08:10:37;;;;;;;10.38;5.32;;;-4.20;98.00;;;;;;4993240;28;20206;-88
2024/01/21 08:13:04;;;;;;;14.63;6.10;;;-4.00;98.00;;;;;;4992821;28;20570;-88
2024/01/21 08:15:31;;;;;;;13.85;6.18;;;-3.70;98.00;;;;;;4993058;28;20225;-86
2024/01/21 08:17:58;;;;;;;14.15;5.90;;;-3.80;98.00;;;;;;4992751;28;20587;-88
2024/01/21 08:20:25;;;;;;;14.95;6.03;;;-3.70;98.00;;;;;;4993129;28;20216;-88
2024/01/21 08:22:52;;;;;;;16.27;6.45;;;-3.70;98.00;;;;;;4992183;28;20237;-87
2024/01/21 08:25:21;;;;;;;12.75;6.15;;;-3.80;98.00;;;;;;4992679;28;20193;-88
2024/01/21 08:27:48;;;;;;;15.65;6.13;;;-3.80;98.00;;;;;;4992642;28;20684;-88
2024/01/21 08:30:16;;;;;;;16.30;6.72;;;-3.80;98.00;;;;;;4993220;28;20223;-88
2024/01/21 08:32:43;;;;;;;16.35;6.45;;;-3.50;98.00;;;;;;4993119;28;20835;-88
2024/01/21 08:35:10;;;;;;;17.35;6.07;;;-3.30;98.00;;;;;;4992912;28;20716;-88
2024/01/21 08:37:38;;;;;;;18.85;7.13;;;-3.10;98.00;;;;;;4992505;28;20634;-88
2024/01/21 08:40:06;;;;;;;19.92;6.95;;;-3.10;98.00;;;;;;4993224;28;20209;-88
2024/01/21 08:42:35;;;;;;;17.25;7.95;;;-2.90;98.00;;;;;;4993011;28;20573;-88
2024/01/21 08:45:02;;;;;;;16.35;7.25;;;-2.90;98.00;;;;;;4992843;28;20293;-88
2024/01/21 08:47:29;;;;;;;22.98;8.35;;;-2.80;98.00;;;;;;4992359;28;20185;-88
2024/01/21 08:49:56;;;;;;;17.80;7.25;;;-2.80;98.00;;;;;;4992165;28;20209;-87
2024/01/21 08:52:23;;;;;;;13.55;6.95;;;-2.90;98.00;;;;;;4994377;28;20643;-88
2024/01/21 08:54:50;;;;;;;21.42;7.75;;;-2.80;98.00;;;;;;4996729;28;20205;-89
2024/01/21 08:57:17;;;;;;;22.10;8.60;;;;;;;;;;4996715;28;20217;-87
2024/01/21 08:59:46;;;;;;;16.88;7.22;;;;;;;;;;4996929;28;20700;-87
2024/01/21 09:02:13;;;;;;;18.45;7.45;;;-2.70;98.00;;;;;;4996570;28;20233;-87
2024/01/21 09:04:41;;;;;;;17.98;7.88;;;-2.60;98.00;;;;;;4996111;28;20665;-89
2024/01/21 09:07:08;;;;;;;18.35;7.75;;;-2.50;98.00;;;;;;4996710;28;20256;-88
2024/01/21 09:09:35;;;;;;;21.58;7.70;;;-2.50;98.00;;;;;;4996467;28;20218;-89
2024/01/21 09:12:02;;;;;;;28.30;8.37;;;-2.50;98.00;;;;;;4977039;28;20215;-88
2024/01/21 09:14:29;;;;;;;24.48;8.25;;;-2.40;98.00;;;;;;4977212;28;20797;-88
2024/01/21 09:16:58;;;;;;;19.73;8.17;;;-2.30;98.00;;;;;;4981157;28;20226;-88
2024/01/21 09:19:25;;;;;;;23.40;7.97;;;-2.20;98.00;;;;;;5034111;23;20501;-83
2024/01/21 09:21:52;;;;;;;22.90;8.57;;;-2.00;98.00;;;;;;5071695;28;20470;-82
2024/01/21 09:24:21;;;;;;;15.83;7.33;;;-1.90;98.00;;;;;;5075797;28;20463;-84
2024/01/21 09:26:48;;;;;;;18.83;7.60;;;-1.80;98.00;;;;;;5077525;28;20514;-83
2024/01/21 09:29:15;;;;;;;28.57;8.50;;;-1.70;98.00;;;;;;5073297;28;20480;-84
2024/01/21 09:31:42;;;;;;;18.70;7.90;;;-1.70;98.00;;;;;;5047042;28;20528;-83
2024/01/21 09:34:11;;;;;;;16.33;7.43;;;-1.60;98.00;;;;;;5049616;28;20460;-83
2024/01/21 09:36:39;;;;;;;22.27;8.07;;;-1.60;98.00;;;;;;5042418;28;20221;-83
2024/01/21 09:39:09;;;;;;;23.95;8.45;;;-1.60;98.00;;;;;;5042698;28;21005;-83
2024/01/21 09:41:39;;;;;;;24.87;8.70;;;-1.70;98.00;;;;;;5041915;28;20217;-83
2024/01/21 09:44:07;;;;;;;21.83;8.77;;;-1.70;98.00;;;;;;5042650;28;20462;-84
2024/01/21 09:46:34;;;;;;;22.92;7.88;;;-1.70;98.00;;;;;;5042365;28;20455;-83
2024/01/21 09:49:03;;;;;;;18.87;8.27;;;-1.50;98.00;;;;;;5041498;28;20242;-83
2024/01/21 09:51:36;;;;;;;23.07;7.63;;;-1.50;98.00;;;;;;5041410;28;20534;-83
2024/01/21 09:54:06;;;;;;;21.97;8.70;;;-1.40;98.00;;;;;;5040149;28;20459;-84
2024/01/21 09:56:34;;;;;;;23.10;8.30;;;-1.30;98.00;;;;;;5038251;28;20483;-84
2024/01/21 09:59:03;;;;;;;24.93;8.33;;;-1.30;98.00;;;;;;5038439;28;20194;-83
2024/01/21 10:01:32;;;;;;;18.97;8.57;;;-1.40;98.00;;;;;;5038992;28;20804;-83
2024/01/21 10:03:59;;;;;;;22.47;8.30;;;-1.20;98.00;;;;;;5037547;28;20844;-83
2024/01/21 10:06:26;;;;;;;28.70;10.07;;;-1.10;98.00;;;;;;5038315;28;20882;-84
2024/01/21 10:09:10;;;;;;;26.27;8.97;;;-1.10;98.00;;;;;;5039430;28;20502;-83
2024/01/21 10:11:38;;;;;;;19.53;7.90;;;-1.00;98.00;;;;;;5040697;28;20537;-84
2024/01/21 10:14:06;;;;;;;26.97;9.33;;;-0.90;98.00;;;;;;5040988;28;20443;-84
2024/01/21 10:16:33;;;;;;;20.33;8.60;;;-0.80;98.00;;;;;;5039997;28;20507;-84
2024/01/21 10:19:02;;;;;;;22.50;8.63;;;-0.80;98.00;;;;;;5041198;28;20467;-83
2024/01/21 10:21:29;;;;;;;27.13;9.90;;;-0.70;98.00;;;;;;5040248;28;20466;-83
2024/01/21 10:23:58;;;;;;;19.60;8.67;;;-0.60;98.00;;;;;;5041018;28;20466;-84
2024/01/21 10:26:25;;;;;;;20.57;8.70;;;-0.60;98.00;;;;;;5049313;28;20514;-84
2024/01/21 10:28:58;;;;;;;27.47;9.63;;;-0.50;98.00;;;;;;5060025;28;20502;-84
2024/01/21 10:31:25;;;;;;;21.47;9.40;;;-0.40;98.00;;;;;;5055504;28;20461;-83
2024/01/21 10:33:52;;;;;;;21.73;8.90;;;-0.20;98.00;;;;;;5060141;28;20446;-83
2024/01/21 10:36:20;;;;;;;24.70;9.30;;;-0.10;98.00;;;;;;5052811;28;21030;-83
2024/01/21 10:38:50;;;;;;;21.37;9.90;;;-0.10;98.00;;;;;;5048403;28;20453;-84
2024/01/21 10:41:29;;;;;;;25.40;9.73;;;0.00;98.00;;;;;;5041056;28;20934;-82
2024/01/21 10:43:58;;;;;;;26.53;9.43;;;0.00;98.00;;;;;;5039630;28;20443;-85
2024/01/21 10:46:26;;;;;;;25.70;10.50;;;0.10;98.00;;;;;;5037599;28;20521;-84
2024/01/21 10:48:55;;;;;;;25.30;9.77;;;0.10;98.00;;;;;;5036703;28;20470;-83
2024/01/21 10:51:23;;;;;;;32.97;11.10;;;0.10;98.00;;;;;;5037223;28;20473;-84
2024/01/21 10:53:52;;;;;;;28.23;11.33;;;0.20;98.00;;;;;;5035708;28;20467;-84
2024/01/21 10:56:23;;;;;;;25.43;9.63;;;0.20;98.00;;;;;;5035872;28;20901;-83
2024/01/21 10:58:50;;;;;;;23.70;10.30;;;0.20;98.00;;;;;;5038722;28;20441;-84
2024/01/21 11:01:18;;;;;;;24.70;10.50;;;0.30;98.00;;;;;;5035821;28;20461;-84
2024/01/21 11:03:48;;;;;;;29.27;11.30;;;0.40;98.00;;;;;;5037273;28;20800;-82
2024/01/21 11:06:18;;;;;;;21.47;9.87;;;0.50;98.00;;;;;;5037119;28;20454;-84
2024/01/21 11:08:45;;;;;;;22.43;10.07;;;0.80;98.00;;;;;;5037092;28;20980;-84
2024/01/21 11:11:20;;;;;;;27.07;10.33;;;0.90;98.00;;;;;;5038333;28;20816;-84
2024/01/21 11:13:50;;;;;;;28.07;10.90;;;1.10;98.00;;;;;;5037902;28;20462;-83
2024/01/21 11:16:42;;;;;;;38.17;14.97;;;1.20;98.00;;;;;;5038138;28;20497;-83
2024/01/21 11:19:11;;;;;;;29.40;11.83;;;1.30;98.00;;;;;;5019050;28;20498;-83
2024/01/21 11:21:40;;;;;;;29.60;11.53;;;1.50;98.00;;;;;;5038259;28;20435;-84
2024/01/21 11:24:12;;;;;;;27.00;11.00;;;1.40;98.00;;;;;;5038373;28;20504;-84
2024/01/21 11:26:41;;;;;;;31.67;13.03;;;1.50;98.00;;;;;;5038765;28;20480;-84
2024/01/21 11:29:25;;;;;;;33.97;11.90;;;1.60;98.00;;;;;;5038175;28;20560;-83
2024/01/21 11:31:53;;;;;;;26.60;10.43;;;1.70;98.00;;;;;;5038225;28;20454;-84
2024/01/21 11:34:21;;;;;;;27.93;12.00;;;1.70;98.00;;;;;;5036912;28;20466;-84
2024/01/21 11:36:49;;;;;;;46.57;15.13;;;1.80;98.00;;;;;;5037436;28;20485;-84
2024/01/21 11:39:16;;;;;;;33.60;13.17;;;2.00;98.00;;;;;;5037650;28;20482;-84
2024/01/21 11:41:45;;;;;;;35.80;12.67;;;2.10;98.00;;;;;;5039769;28;20941;-84
2024/01/21 11:44:13;;;;;;;27.70;12.23;;;2.00;98.00;;;;;;5038511;28;20497;-85
2024/01/21 11:46:42;;;;;;;28.60;12.10;;;1.90;98.00;;;;;;5038157;28;20451;-85
2024/01/21 11:49:10;;;;;;;29.27;11.83;;;1.80;98.00;;;;;;5038478;28;20502;-85
2024/01/21 11:51:38;;;;;;;49.53;18.13;;;1.80;98.00;;;;;;5038265;28;20523;-84
2024/01/21 11:54:05;;;;;;;30.87;12.83;;;2.00;98.00;;;;;;5038826;28;20950;-85
2024/01/21 11:56:33;;;;;;;30.40;12.50;;;2.00;98.00;;;;;;5039455;28;20637;-85
2024/01/21 11:59:00;;;;;;;31.67;12.50;;;2.00;98.00;;;;;;5039246;28;20450;-84
2024/01/21 12:01:27;;;;;;;39.73;13.10;;;2.00;98.00;;;;;;5042092;28;20458;-84
2024/01/21 12:03:55;;;;;;;33.57;12.47;;;2.10;98.00;;;;;;5040596;28;20490;-85
2024/01/21 12:06:24;;;;;;;31.57;12.07;;;2.20;98.00;;;;;;5040254;28;20463;-86
2024/01/21 12:08:51;;;;;;;33.73;12.40;;;2.30;98.00;;;;;;5040829;28;20946;-84
2024/01/21 12:11:18;;;;;;;32.33;12.80;;;2.50;98.00;;;;;;5041488;28;20458;-86
2024/01/21 12:13:45;;;;;;;31.50;12.20;;;2.60;98.00;;;;;;5040691;28;20458;-84
2024/01/21 12:16:13;;;;;;;32.07;11.60;;;2.80;98.00;;;;;;5041588;28;20515;-84
2024/01/21 12:18:41;;;;;;;23.77;10.80;;;2.90;98.00;;;;;;5041968;28;20462;-85
2024/01/21 12:21:12;;;;;;;37.17;13.43;;;3.10;98.00;;;;;;5041233;28;20478;-84
2024/01/21 12:23:41;;;;;;;38.47;13.60;;;3.40;98.00;;;;;;5040338;28;20452;-84
2024/01/21 12:26:08;;;;;;;35.53;14.37;;;3.50;98.00;;;;;;5040987;28;20470;-84
2024/01/21 12:28:35;;;;;;;37.10;13.20;;;3.60;98.00;;;;;;5040825;28;20459;-84
2024/01/21 12:31:03;;;;;;;39.13;14.70;;;3.90;98.00;;;;;;5040321;28;20489;-85
2024/01/21 12:33:30;;;;;;;36.77;12.60;;;4.20;98.00;;;;;;5041564;28;20460;-85
2024/01/21 12:35:57;;;;;;;34.10;14.53;;;4.60;98.00;;;;;;5040980;28;20507;-85
2024/01/21 12:38:26;;;;;;;35.83;13.83;;;5.00;98.00;;;;;;5040851;28;20485;-84
2024/01/21 12:40:53;;;;;;;35.87;13.50;;;5.30;98.00;;;;;;5041125;28;20485;-85